Time;durP1;ratioP1;P1;durP2;ratioP2;P2;SDS_P1;SDS_P2;PMS_P1;PMS_P2;Temp;Humidity;BMP_temperature;BMP_pressure;BME280_temperature;BME280_humidity;BME280_pressure;Samples;Min_cycle;Max_cycle;Signal;HPM_P1;HPM_P2
2022/09/03 00:01:53;;;;;;;;;;;17.40;40.80;;;15.45;44.39;101575.56;12248111;19;19907;-84
2022/09/03 00:06:00;;;;;;;;;;;17.40;40.80;;;15.43;44.56;101574.81;12245937;19;20594;-85
2022/09/03 00:10:08;;;;;;;;;;;17.60;41.00;;;15.42;44.36;101586.28;12245019;19;19923;-85
2022/09/03 00:14:24;;;;;;;;;;;17.30;40.90;;;15.34;44.70;101564.88;12246374;19;20317;-85
2022/09/03 00:18:30;;;;;;;;;;;17.30;40.80;;;15.36;44.56;101567.38;12246091;19;19918;-84
2022/09/03 00:22:36;;;;;;;;;;;17.60;41.00;;;15.36;44.70;101583.19;12248200;19;19978;-86
2022/09/03 00:26:38;;;;;;;;;;;17.20;40.90;;;15.13;44.69;101548.59;12246226;19;20352;-85
2022/09/03 00:30:41;;;;;;;;;;;17.20;40.80;;;15.10;44.49;101532.16;12243309;19;19949;-85
2022/09/03 00:34:46;;;;;;;;;;;17.20;40.80;;;15.29;44.65;101577.47;12246282;19;19919;-85
2022/09/03 00:38:48;;;;;;;;;;;17.20;40.90;;;15.11;44.72;101563.63;12242826;19;19913;-85
2022/09/03 00:43:19;;;;;;;;;;;17.10;40.90;;;15.10;44.64;101566.38;12244093;19;19919;-86
2022/09/03 00:47:33;;;;;;;;;;;17.10;41.00;;;15.14;44.76;101576.59;12241282;19;19907;-84
2022/09/03 00:51:49;;;;;;;;;;;17.10;40.90;;;15.09;44.80;101581.28;12245007;19;20423;-84
2022/09/03 00:56:07;;;;;;;;;;;17.30;41.10;;;15.08;44.84;101574.34;12242046;19;20611;-85
2022/09/03 01:00:14;;;;;;;;;;;17.00;41.10;;;15.07;44.69;101571.78;12241019;19;20322;-84
2022/09/03 01:04:48;;;;;;;;;;;17.00;41.00;;;14.99;44.87;101562.59;12243772;19;19923;-84
2022/09/03 01:08:56;;;;;;;;;;;16.90;41.10;;;14.96;44.87;101565.41;12240665;19;20308;-85
2022/09/03 01:13:12;;;;;;;;;;;17.00;41.00;;;14.79;44.96;101540.09;12241887;19;19915;-84
2022/09/03 01:17:29;;;;;;;;;;;16.90;41.10;;;14.76;44.99;101550.81;12242570;19;19925;-83
2022/09/03 01:22:02;;;;;;;;;;;16.80;41.00;;;14.74;45.00;101557.97;12240970;19;19935;-86
2022/09/03 01:26:22;;;;;;;;;;;16.70;41.20;;;14.65;45.02;101553.25;12241984;19;19915;-84
2022/09/03 01:30:24;;;;;;;;;;;16.60;41.20;;;14.55;45.14;101546.81;12240428;19;19999;-83
2022/09/03 01:34:47;;;;;;;;;;;16.70;41.30;;;14.56;45.13;101554.63;12242713;19;19929;-85
2022/09/03 01:38:58;;;;;;;;;;;16.50;41.20;;;14.44;45.14;101538.69;12239923;19;19921;-86
2022/09/03 01:43:31;;;;;;;;;;;16.50;41.30;;;14.48;45.24;101556.00;12241466;19;19927;-85
2022/09/03 01:48:01;;;;;;;;;;;16.50;41.30;;;14.46;45.24;101556.06;12241884;19;19930;-85
2022/09/03 01:52:42;;;;;;;;;;;16.40;41.30;;;14.44;45.25;101549.22;12243294;19;19915;-85
2022/09/03 01:57:14;;;;;;;;;;;16.40;41.40;;;14.33;45.39;101541.94;12252360;19;20294;-85
2022/09/03 02:01:29;;;;;;;;;;;16.40;41.50;;;14.31;45.46;101538.56;12249304;19;19963;-85
2022/09/03 02:05:31;;;;;;;;;;;16.30;41.40;;;14.26;45.18;101540.63;12253478;19;19933;-85
2022/09/03 02:09:32;;;;;;;;;;;16.30;41.40;;;14.22;45.29;101539.09;12251211;19;19922;-86
2022/09/03 02:13:37;;;;;;;;;;;16.30;41.50;;;14.27;45.35;101550.19;12252431;19;19929;-84
2022/09/03 02:17:41;;;;;;;;;;;16.50;41.60;;;13.89;45.36;101495.44;12252422;19;19995;-84
2022/09/03 02:21:48;;;;;;;;;;;16.30;41.50;;;14.29;45.40;101557.03;12250470;19;20338;-85
2022/09/03 02:25:54;;;;;;;;;;;16.30;41.60;;;14.22;45.40;101550.44;12251338;19;19919;-85
2022/09/03 02:29:56;;;;;;;;;;;16.40;41.50;;;14.17;45.40;101541.97;12247895;19;19951;-84
2022/09/03 02:33:57;;;;;;;;;;;16.20;41.60;;;14.17;45.48;101540.19;12250038;19;19922;-84
2022/09/03 02:38:13;;;;;;;;;;;16.20;41.50;;;14.17;45.41;101548.06;12249918;19;19918;-85
2022/09/03 02:42:15;;;;;;;;;;;16.20;41.90;;;13.97;45.46;101530.00;12250872;19;19922;-85
2022/09/03 02:46:45;;;;;;;;;;;16.40;41.60;;;14.15;45.52;101564.88;12251513;19;19982;-85
2022/09/03 02:50:47;;;;;;;;;;;16.50;41.70;;;14.05;45.53;101540.06;12245955;19;19915;-84
2022/09/03 02:54:49;;;;;;;;;;;16.10;41.50;;;13.97;45.53;101534.41;12249340;19;19943;-85
2022/09/03 02:58:50;;;;;;;;;;;16.10;41.50;;;14.00;45.56;101542.94;12247418;19;19936;-84
2022/09/03 03:02:53;;;;;;;;;;;16.10;41.70;;;13.59;45.43;101477.84;12248326;19;19910;-85
2022/09/03 03:06:55;;;;;;;;;;;16.00;41.50;;;14.00;45.68;101550.81;12250971;19;19918;-85
2022/09/03 03:10:57;;;;;;;;;;;16.00;41.50;;;13.82;45.65;101520.34;12245271;19;19911;-86
2022/09/03 03:14:59;;;;;;;;;;;16.10;41.70;;;13.94;45.55;101543.28;12247399;19;19922;-84
2022/09/03 03:19:00;;;;;;;;;;;16.10;41.80;;;13.95;45.81;101551.06;12244725;19;19926;-84
2022/09/03 03:23:03;;;;;;;;;;;15.90;41.70;;;13.76;45.85;101515.44;12245761;19;20320;-84
2022/09/03 03:27:06;;;;;;;;;;;16.00;41.60;;;13.76;45.74;101531.19;12247987;19;19922;-86
2022/09/03 03:31:12;;;;;;;;;;;15.90;41.80;;;13.78;45.77;101532.78;12244562;19;19962;-84
2022/09/03 03:35:14;;;;;;;;;;;15.90;41.80;;;13.84;45.80;101547.34;12248373;19;19915;-85
2022/09/03 03:39:15;;;;;;;;;;;15.90;41.90;;;13.84;45.87;101556.06;12245529;19;19922;-85
2022/09/03 03:43:16;;;;;;;;;;;15.90;41.90;;;13.70;45.84;101546.34;12246509;19;19922;-84
2022/09/03 03:47:18;;;;;;;;;;;15.80;41.90;;;13.22;45.91;101469.34;12247887;19;19925;-85
2022/09/03 03:51:19;;;;;;;;;;;15.80;41.90;;;13.63;45.95;101531.00;12246982;19;19959;-84
2022/09/03 03:55:21;;;;;;;;;;;15.80;41.90;;;13.80;45.92;101566.81;12246786;19;19953;-84
2022/09/03 03:59:23;;;;;;;;;;;15.80;42.00;;;13.61;45.96;101533.75;12247448;19;19939;-85
2022/09/03 04:03:24;;;;;;;;;;;15.80;41.90;;;13.70;45.96;101553.38;12248847;19;20388;-84
2022/09/03 04:07:26;;;;;;;;;;;15.70;42.10;;;13.41;46.07;101510.34;12248175;19;19911;-85
2022/09/03 04:11:27;;;;;;;;;;;15.80;41.90;;;13.50;46.22;101530.84;12248857;19;19911;-85
2022/09/03 04:15:28;;;;;;;;;;;15.90;42.10;;;13.30;46.04;101497.81;12243731;19;20000;-85
2022/09/03 04:19:30;;;;;;;;;;;15.70;42.10;;;13.67;46.01;101554.38;12245386;19;19923;-84
2022/09/03 04:23:38;;;;;;;;;;;15.70;42.10;;;13.53;46.06;101520.19;12245967;19;19939;-84
2022/09/03 04:27:40;;;;;;;;;;;15.70;42.00;;;13.68;46.20;101550.81;12245005;19;19975;-84
2022/09/03 04:32:52;;;;;;;;;;;16.10;42.20;;;13.70;46.25;101545.50;12246446;19;19923;-85
2022/09/03 04:36:07;;;;;;;;;;;15.80;42.10;;;13.77;46.17;101556.50;12243126;19;19939;-85
2022/09/03 04:40:08;;;;;;;;;;;15.70;42.00;;;13.77;46.49;101553.88;12243519;19;19915;-83
2022/09/03 04:44:11;;;;;;;;;;;15.70;42.10;;;13.66;46.29;101536.97;12248599;19;19910;-84
2022/09/03 04:48:12;;;;;;;;;;;15.70;42.40;;;13.84;46.34;101555.25;12247169;19;19919;-84
2022/09/03 04:52:13;;;;;;;;;;;15.80;42.10;;;13.88;46.44;101552.38;12248307;19;19933;-84
2022/09/03 04:56:21;;;;;;;;;;;16.10;42.50;;;13.87;46.34;101550.66;12246901;19;19970;-86
2022/09/03 05:00:22;;;;;;;;;;;15.80;42.20;;;13.92;46.29;101546.00;12243662;19;19911;-88
2022/09/03 05:04:24;;;;;;;;;;;15.90;42.30;;;13.92;46.44;101542.53;12246071;19;19947;-86
2022/09/03 05:08:26;;;;;;;;;;;15.90;42.40;;;13.88;46.40;101530.50;12245612;19;19951;-86
2022/09/03 05:12:28;;;;;;;;;;;16.00;42.40;;;13.52;46.36;101473.88;12247729;19;19918;-86
2022/09/03 05:16:29;;;;;;;;;;;16.00;42.30;;;13.91;46.40;101546.09;12247804;19;19907;-86
2022/09/03 05:20:31;;;;;;;;;;;16.00;42.20;;;13.88;46.36;101541.88;12244083;19;19915;-84
2022/09/03 05:24:33;;;;;;;;;;;16.00;42.40;;;14.01;46.48;101563.00;12245111;19;19923;-84
2022/09/03 05:28:40;;;;;;;;;;;16.00;42.60;;;14.07;46.61;101567.06;12247982;19;19911;-85
2022/09/03 05:32:41;;;;;;;;;;;16.00;42.30;;;13.57;46.50;101484.13;12255946;19;19914;-84
2022/09/03 05:36:44;;;;;;;;;;;16.00;42.40;;;13.82;46.59;101536.09;12259667;19;19929;-86
2022/09/03 05:40:45;;;;;;;;;;;16.00;42.40;;;14.00;46.70;101565.72;12252604;19;19915;-86
2022/09/03 05:44:48;;;;;;;;;;;16.10;42.50;;;14.09;46.59;101571.31;12257777;19;19978;-86
2022/09/03 05:48:49;;;;;;;;;;;16.00;42.90;;;14.11;46.65;101584.34;12255768;19;20348;-85
2022/09/03 05:52:51;;;;;;;;;;;16.10;42.70;;;13.70;46.79;101512.22;12258255;19;19943;-86
2022/09/03 05:56:53;;;;;;;;;;;16.30;42.60;;;14.13;46.76;101569.38;12256543;19;20003;-86
2022/09/03 06:00:54;;;;;;;;;;;16.20;42.80;;;14.08;46.64;101553.00;12252097;19;19927;-86
2022/09/03 06:04:56;;;;;;;;;;;16.10;42.80;;;14.20;46.86;101560.19;12253653;19;19919;-86
2022/09/03 06:09:05;;;;;;;;;;;16.40;42.80;;;14.27;46.90;101561.53;12252112;19;19930;-85
2022/09/03 06:13:06;;;;;;;;;;;16.30;42.80;;;13.96;46.78;101504.69;12255137;19;19975;-86
2022/09/03 06:17:10;;;;;;;;;;;16.40;42.90;;;14.55;46.90;101568.69;12254651;19;19910;-86
2022/09/03 06:21:11;;;;;;;;;;;16.40;42.90;;;14.67;46.85;101566.31;12249802;19;20341;-85
2022/09/03 06:25:14;;;;;;;;;;;16.50;42.90;;;14.82;47.00;101565.38;12254357;19;20263;-85
2022/09/03 06:29:17;;;;;;;;;;;16.60;42.90;;;14.86;47.00;101548.50;12250354;19;19907;-85
2022/09/03 06:33:18;;;;;;;;;;;16.70;43.00;;;15.06;46.93;101573.59;12252787;19;20234;-87
2022/09/03 06:37:20;;;;;;;;;;;17.10;43.00;;;15.14;46.93;101563.44;12252670;19;19911;-86
2022/09/03 06:41:27;;;;;;;;;;;17.00;42.70;;;15.30;46.85;101555.44;12247717;19;19932;-86
2022/09/03 06:45:29;;;;;;;;;;;17.10;43.00;;;15.48;46.98;101561.38;12252612;19;19918;-85
2022/09/03 06:49:31;;;;;;;;;;;17.50;43.20;;;15.58;46.97;101567.75;12250998;19;19961;-86
2022/09/03 06:53:35;;;;;;;;;;;17.30;43.10;;;15.66;46.84;101561.97;12252903;19;19914;-84
2022/09/03 06:57:37;;;;;;;;;;;17.40;42.90;;;15.73;46.77;101552.78;12253277;19;19911;-86
2022/09/03 07:01:40;;;;;;;;;;;17.60;43.30;;;16.00;46.89;101580.94;12253232;19;20272;-87
2022/09/03 07:05:42;;;;;;;;;;;18.00;43.30;;;16.08;46.82;101562.84;12252165;19;19907;-87
2022/09/03 07:09:43;;;;;;;;;;;17.80;43.40;;;16.23;47.15;101563.63;12250780;19;19907;-88
2022/09/03 07:13:47;;;;;;;;;;;17.90;43.20;;;16.37;46.92;101560.94;12251905;19;20233;-87
2022/09/03 07:17:49;;;;;;;;;;;18.10;43.10;;;16.56;47.13;101571.97;12250874;19;19915;-87
2022/09/03 07:21:50;;;;;;;;;;;18.20;43.10;;;16.49;47.03;101535.56;12252072;19;19919;-85
2022/09/03 07:25:56;;;;;;;;;;;18.50;43.10;;;16.85;47.15;101570.97;12252368;19;19932;-86
2022/09/03 07:29:58;;;;;;;;;;;18.50;42.90;;;16.94;46.87;101565.91;12247284;19;19927;-88
2022/09/03 07:34:02;;;;;;;;;;;18.70;43.20;;;17.20;46.90;101568.53;12250659;19;19910;-86
2022/09/03 07:38:04;;;;;;;;;;;19.00;43.30;;;17.25;46.92;101554.09;12246498;19;19926;-86
2022/09/03 07:42:09;;;;;;;;;;;19.00;43.10;;;17.01;46.71;101488.03;12250229;19;19918;-86
2022/09/03 07:46:11;;;;;;;;;;;19.20;43.10;;;17.52;46.83;101536.38;12251521;19;19926;-86
2022/09/03 07:50:15;;;;;;;;;;;19.60;43.20;;;18.07;46.75;101585.28;12246731;19;19923;-86
2022/09/03 07:54:16;;;;;;;;;;;19.60;43.20;;;18.34;46.58;101588.53;12248529;19;19922;-87
2022/09/03 07:58:17;;;;;;;;;;;19.90;43.20;;;18.50;46.72;101588.22;12246649;19;19911;-87
2022/09/03 08:02:19;;;;;;;;;;;20.00;43.00;;;18.65;46.74;101591.50;12247886;19;20614;-86
2022/09/03 08:06:22;;;;;;;;;;;20.20;42.90;;;18.71;46.35;101583.13;12248583;19;19913;-86
2022/09/03 08:10:25;;;;;;;;;;;20.30;42.70;;;18.44;46.41;101530.47;12245625;19;19923;-86
2022/09/03 08:14:29;;;;;;;;;;;20.70;42.70;;;18.52;46.39;101533.41;12248163;19;19923;-86
2022/09/03 08:18:36;;;;;;;;;;;20.60;42.70;;;18.72;46.67;101533.69;12246316;19;19926;-86
2022/09/03 08:22:38;;;;;;;;;;;20.70;42.70;;;18.93;46.43;101521.47;12248307;19;19918;-86
2022/09/03 08:26:41;;;;;;;;;;;20.90;42.70;;;19.51;46.35;101584.06;12248112;19;19974;-86
2022/09/03 08:30:43;;;;;;;;;;;21.10;42.60;;;19.71;46.65;101586.00;12249544;19;20350;-87
2022/09/03 08:34:45;;;;;;;;;;;21.20;42.60;;;19.87;46.33;101586.47;12248870;19;20390;-84
2022/09/03 08:38:49;;;;;;;;;;;21.70;42.70;;;20.07;46.27;101581.34;12248221;19;19922;-87
2022/09/03 08:43:16;;;;;;;;;;;21.60;42.60;;;20.13;46.24;101538.41;12247820;19;20285;-88
2022/09/03 08:47:26;;;;;;;;;;;21.80;42.50;;;20.63;46.12;101572.31;12250794;19;20334;-87
2022/09/03 08:51:28;;;;;;;;;;;22.10;42.60;;;20.73;46.16;101550.16;12250274;19;19926;-86
2022/09/03 08:55:35;;;;;;;;;;;22.30;42.50;;;20.98;45.86;101566.66;12248775;19;19967;-85
2022/09/03 08:59:36;;;;;;;;;;;22.50;42.20;;;21.11;45.66;101546.03;12245809;19;19944;-87
2022/09/03 09:03:56;;;;;;;;;;;22.70;41.00;;;21.37;45.55;101569.50;12245166;19;19914;-87
2022/09/03 09:08:13;;;;;;;;;;;22.90;41.90;;;21.59;45.58;101557.84;12247201;19;19961;-87
2022/09/03 09:12:42;;;;;;;;;;;23.10;42.20;;;21.65;45.73;101536.03;12245065;19;19951;-86
2022/09/03 09:16:58;;;;;;;;;;;23.30;41.80;;;21.99;45.68;101541.81;12245142;19;20393;-86
2022/09/03 09:21:21;;;;;;;;;;;23.50;41.50;;;22.10;45.45;101538.19;12242208;19;19922;-89
2022/09/03 09:25:25;;;;;;;;;;;23.70;41.80;;;22.26;45.08;101535.81;12241254;19;19918;-85
2022/09/03 09:29:29;;;;;;;;;;;23.90;41.90;;;22.34;44.78;101519.16;12245010;19;20360;-88
2022/09/03 09:33:31;;;;;;;;;;;23.90;41.60;;;22.54;45.05;101541.25;12245138;19;19923;-88
2022/09/03 09:37:34;;;;;;;;;;;24.10;41.20;;;22.57;44.91;101522.31;12244116;19;19929;-88
2022/09/03 09:41:35;;;;;;;;;;;24.10;41.10;;;22.46;44.97;101478.06;12242418;19;20317;-88
2022/09/03 09:45:39;;;;;;;;;;;24.30;41.10;;;22.86;44.59;101518.75;12244345;19;19975;-86
2022/09/03 09:49:58;;;;;;;;;;;24.40;41.50;;;22.96;44.74;101504.44;12242263;19;19911;-88
2022/09/03 09:54:20;;;;;;;;;;;24.60;41.10;;;22.95;44.43;101492.09;12244754;19;20330;-86
2022/09/03 09:58:24;;;;;;;;;;;24.70;40.50;;;23.24;44.83;101516.94;12242517;19;19915;-88
2022/09/03 10:02:27;;;;;;;;;;;24.80;40.30;;;23.15;44.63;101476.03;12242257;19;20330;-88
2022/09/03 10:10:50;;;;;;;;;;;25.10;39.50;;;23.60;44.17;101493.84;12240786;19;19923;-86
2022/09/03 10:15:13;;;;;;;;;;;25.20;40.50;;;23.73;43.82;101486.34;12251020;19;19918;-85
2022/09/03 10:19:22;;;;;;;;;;;25.30;40.70;;;23.57;43.84;101443.47;12252701;19;19918;-86
2022/09/03 10:23:28;;;;;;;;;;;25.40;39.50;;;24.02;43.77;101490.59;12252287;19;19929;-84
2022/09/03 10:27:29;;;;;;;;;;;25.60;39.70;;;24.05;43.55;101479.63;12253888;19;19918;-85
2022/09/03 10:31:40;;;;;;;;;;;25.70;40.10;;;24.35;43.71;101497.03;12255652;19;19957;-85
2022/09/03 10:36:17;;;;;;;;;;;25.80;39.10;;;24.27;43.33;101495.13;12253551;19;19930;-87
2022/09/03 10:40:34;;;;;;;;;;;25.90;38.50;;;24.26;43.37;101493.47;12250196;19;19910;-88
2022/09/03 10:44:53;;;;;;;;;;;25.90;37.80;;;24.14;43.34;101488.53;12255866;19;19919;-86
2022/09/03 10:49:10;;;;;;;;;;;25.90;39.50;;;24.13;43.19;101498.38;12253425;19;19922;-88
2022/09/03 10:53:36;;;;;;;;;;;25.90;39.70;;;24.11;42.65;101496.84;12253476;19;19978;-89
2022/09/03 10:57:43;;;;;;;;;;;25.80;39.70;;;24.01;42.99;101488.94;12253560;19;19936;-88
2022/09/03 11:01:50;;;;;;;;;;;25.80;38.80;;;23.93;42.92;101480.88;12250244;19;19919;-87
2022/09/03 11:06:11;;;;;;;;;;;25.70;38.80;;;23.85;42.99;101469.13;12254206;19;19918;-87
2022/09/03 11:10:25;;;;;;;;;;;25.70;38.10;;;23.85;42.71;101462.97;12252429;19;19918;-87
2022/09/03 11:14:45;;;;;;;;;;;25.60;38.20;;;23.97;43.01;101455.53;12255078;19;19921;-87
2022/09/03 11:18:54;;;;;;;;;;;25.60;36.90;;;24.02;42.53;101443.41;12249706;19;20323;-84
2022/09/03 11:23:02;;;;;;;;;;;25.80;39.00;;;24.08;42.23;101432.09;12254568;19;19991;-86
2022/09/03 11:27:25;;;;;;;;;;;25.80;38.30;;;24.27;42.11;101438.25;12254364;19;20496;-85
2022/09/03 11:31:56;;;;;;;;;;;25.80;38.00;;;24.51;42.15;101442.94;12252991;19;19953;-86
2022/09/03 11:36:00;;;;;;;;;;;25.90;38.60;;;24.70;41.23;101433.84;12252622;19;19938;-87
2022/09/03 11:40:16;;;;;;;;;;;26.00;39.20;;;24.84;41.51;101424.38;12250409;19;19915;-87
2022/09/03 11:44:18;;;;;;;;;;;26.20;38.20;;;24.90;41.25;101431.78;12252057;19;19923;-89
2022/09/03 11:48:44;;;;;;;;;;;26.40;38.10;;;24.97;41.59;101432.78;12252763;19;19922;-87
2022/09/03 11:52:52;;;;;;;;;;;26.40;37.60;;;24.66;40.89;101382.59;12253297;19;19922;-87
2022/09/03 11:57:22;;;;;;;;;;;26.50;36.80;;;25.03;40.98;101440.16;12255154;19;19919;-89
2022/09/03 12:01:27;;;;;;;;;;;26.60;36.60;;;24.65;41.02;101391.56;12251024;19;19926;-88
2022/09/03 12:05:54;;;;;;;;;;;26.50;37.50;;;24.80;40.82;101418.53;12253451;19;19922;-87
2022/09/03 12:10:05;;;;;;;;;;;26.50;37.50;;;24.79;41.00;101413.34;12251372;19;19923;-89
2022/09/03 12:14:31;;;;;;;;;;;26.50;36.50;;;24.89;41.21;101430.09;12253014;19;20253;-87
2022/09/03 12:18:34;;;;;;;;;;;26.50;37.70;;;24.82;41.17;101407.69;12250542;19;19990;-88
2022/09/03 12:22:37;;;;;;;;;;;26.50;37.20;;;24.80;41.32;101409.69;12254387;19;19919;-88
2022/09/03 12:26:41;;;;;;;;;;;26.40;36.90;;;24.59;40.46;101392.22;12254616;19;19932;-88
2022/09/03 12:30:42;;;;;;;;;;;26.40;38.00;;;24.65;40.79;101412.13;12250160;19;20337;-88
2022/09/03 12:34:44;;;;;;;;;;;26.30;37.30;;;24.36;41.00;101373.25;12251972;19;20376;-89
2022/09/03 12:38:46;;;;;;;;;;;26.30;37.20;;;24.67;41.17;101389.59;12250586;19;20309;-88
2022/09/03 12:42:49;;;;;;;;;;;26.30;37.60;;;24.63;40.98;101358.88;12253557;19;19934;-88
2022/09/03 12:47:00;;;;;;;;;;;26.40;37.20;;;24.88;40.63;101374.97;12252431;19;19922;-88
2022/09/03 12:51:02;;;;;;;;;;;26.40;37.70;;;24.89;40.54;101390.84;12251225;19;20791;-88
2022/09/03 12:55:40;;;;;;;;;;;26.50;36.60;;;24.81;40.29;101374.78;12248924;19;19933;-88
2022/09/03 12:59:41;;;;;;;;;;;26.50;37.10;;;24.88;40.13;101375.81;12246648;19;20325;-87
2022/09/03 13:03:53;;;;;;;;;;;26.50;37.80;;;24.95;40.27;101378.66;12248466;19;19918;-88
2022/09/03 13:07:57;;;;;;;;;;;26.50;37.20;;;24.50;40.23;101313.09;12250733;19;19918;-87
2022/09/03 13:12:00;;;;;;;;;;;26.50;37.40;;;24.92;40.10;101381.66;12248806;19;19911;-88
2022/09/03 13:16:28;;;;;;;;;;;26.50;37.20;;;24.99;39.90;101380.00;12247420;19;19929;-87
2022/09/03 13:20:59;;;;;;;;;;;26.50;37.20;;;25.05;40.20;101370.50;12245169;19;19931;-85
2022/09/03 13:25:06;;;;;;;;;;;26.50;37.40;;;25.08;39.68;101375.53;12247882;19;19915;-86
2022/09/03 13:29:17;;;;;;;;;;;26.60;36.20;;;25.07;39.28;101377.38;12244794;19;19911;-86
2022/09/03 13:33:33;;;;;;;;;;;26.60;37.30;;;24.99;39.49;101363.97;12246439;19;19930;-86
2022/09/03 13:37:56;;;;;;;;;;;26.60;37.00;;;25.05;39.36;101375.84;12246835;19;19921;-87
2022/09/03 13:42:31;;;;;;;;;;;26.60;36.90;;;24.93;39.55;101370.00;12247836;19;19923;-86
2022/09/03 13:46:47;;;;;;;;;;;26.60;36.90;;;24.87;39.41;101368.81;12246986;19;19915;-87
2022/09/03 13:51:14;;;;;;;;;;;26.50;36.70;;;24.79;39.75;101344.75;12255042;19;19923;-85
2022/09/03 13:55:36;;;;;;;;;;;26.50;36.50;;;24.82;39.89;101372.97;12258340;19;19927;-86
2022/09/03 13:59:49;;;;;;;;;;;26.40;36.70;;;24.68;39.72;101345.88;12253916;19;19915;-87
2022/09/03 14:04:01;;;;;;;;;;;26.40;36.70;;;24.65;39.75;101340.00;12257651;19;20332;-86
2022/09/03 14:08:47;;;;;;;;;;;26.30;36.50;;;24.65;39.53;101342.66;12254998;19;20432;-86
2022/09/03 14:13:20;;;;;;;;;;;26.30;36.90;;;24.74;39.82;101347.06;12256052;19;19907;-86
2022/09/03 14:17:36;;;;;;;;;;;26.30;36.50;;;24.78;39.54;101342.22;12254697;19;20277;-87
2022/09/03 14:21:46;;;;;;;;;;;26.30;37.00;;;24.69;39.97;101339.53;12253204;19;19911;-87
2022/09/03 14:25:55;;;;;;;;;;;26.30;36.40;;;24.65;39.33;101327.47;12255967;19;19939;-87
2022/09/03 14:30:02;;;;;;;;;;;26.30;36.70;;;24.65;39.61;101335.47;12254568;19;19919;-86
2022/09/03 14:34:13;;;;;;;;;;;26.30;36.40;;;24.70;39.60;101343.03;12256521;19;19915;-87
2022/09/03 14:38:23;;;;;;;;;;;26.30;37.00;;;24.66;39.52;101331.84;12255341;19;19919;-85
2022/09/03 14:42:44;;;;;;;;;;;26.20;36.20;;;24.56;39.59;101330.28;12257700;19;19952;-86
2022/09/03 14:47:03;;;;;;;;;;;26.20;36.90;;;24.59;39.27;101343.31;12255691;19;19919;-87
2022/09/03 14:51:33;;;;;;;;;;;26.10;35.80;;;24.56;39.26;101325.78;12252293;19;19919;-87
2022/09/03 14:56:12;;;;;;;;;;;26.10;36.40;;;24.62;39.03;101329.63;12254886;19;19923;-88
2022/09/03 15:01:00;;;;;;;;;;;26.10;36.90;;;24.60;39.43;101337.84;12250548;19;20290;-87
2022/09/03 15:05:42;;;;;;;;;;;26.10;36.50;;;24.57;39.23;101334.63;12252218;19;19927;-88
2022/09/03 15:09:59;;;;;;;;;;;26.10;36.40;;;24.55;39.36;101334.81;12250906;19;19910;-85
2022/09/03 15:14:19;;;;;;;;;;;26.10;36.70;;;24.58;38.96;101318.47;12254251;19;20373;-88
2022/09/03 15:18:57;;;;;;;;;;;26.10;36.40;;;24.62;38.84;101318.97;12250407;19;19910;-88
2022/09/03 15:23:16;;;;;;;;;;;26.10;37.00;;;24.52;39.25;101300.41;12253587;19;19923;-87
2022/09/03 15:27:18;;;;;;;;;;;26.10;36.50;;;24.66;39.34;101317.66;12254034;19;20334;-86
2022/09/03 15:31:46;;;;;;;;;;;26.10;35.90;;;24.70;39.20;101311.81;12254844;19;19914;-88
2022/09/03 15:35:51;;;;;;;;;;;26.10;36.50;;;24.71;38.51;101318.84;12254052;19;19910;-85
2022/09/03 15:40:24;;;;;;;;;;;26.20;36.80;;;24.67;38.73;101330.00;12248615;19;19915;-85
2022/09/03 15:44:33;;;;;;;;;;;26.20;36.40;;;24.58;38.66;101320.28;12253220;19;20358;-85
2022/09/03 15:48:49;;;;;;;;;;;26.10;36.20;;;24.49;39.01;101319.41;12250336;19;19975;-86
2022/09/03 15:53:12;;;;;;;;;;;26.10;35.80;;;24.55;39.05;101334.81;12251704;19;19927;-85
2022/09/03 15:57:22;;;;;;;;;;;26.10;36.20;;;24.55;38.68;101326.78;12246923;19;19942;-86
2022/09/03 16:01:36;;;;;;;;;;;26.10;36.20;;;24.60;38.59;101326.28;12250091;19;19928;-87
2022/09/03 16:05:49;;;;;;;;;;;26.00;36.30;;;24.64;39.02;101327.66;12251637;19;19919;-87
2022/09/03 16:10:05;;;;;;;;;;;26.10;36.20;;;24.65;38.73;101330.16;12249995;19;19915;-86
2022/09/03 16:14:16;;;;;;;;;;;26.10;36.40;;;24.58;38.69;101328.31;12252140;19;19919;-87
2022/09/03 16:18:32;;;;;;;;;;;26.10;36.10;;;24.61;38.80;101339.50;12250645;19;19918;-88
2022/09/03 16:23:11;;;;;;;;;;;26.10;36.00;;;24.51;38.94;101333.44;12251225;19;19925;-87
2022/09/03 16:27:19;;;;;;;;;;;26.10;36.30;;;24.48;38.61;101337.25;12250595;19;19911;-87
2022/09/03 16:31:45;;;;;;;;;;;26.10;36.40;;;24.39;38.75;101327.53;12250982;19;19918;-86
2022/09/03 16:36:14;;;;;;;;;;;26.00;36.20;;;24.42;38.75;101339.72;12250378;19;19918;-87
2022/09/03 16:40:41;;;;;;;;;;;26.00;36.20;;;24.28;38.90;101328.66;12247893;19;19951;-86
2022/09/03 16:45:04;;;;;;;;;;;25.90;36.30;;;24.24;38.85;101329.13;12248607;19;19915;-87
2022/09/03 16:49:20;;;;;;;;;;;25.90;36.10;;;24.25;39.04;101331.66;12245908;19;21365;-87
2022/09/03 16:54:02;;;;;;;;;;;25.80;36.20;;;24.20;38.61;101333.94;12249096;19;19947;-87
2022/09/03 16:58:49;;;;;;;;;;;25.80;36.20;;;24.02;38.92;101331.34;12248276;19;19923;-87
2022/09/03 17:03:12;;;;;;;;;;;25.80;35.90;;;24.04;39.04;101341.88;12245115;19;20591;-86
2022/09/03 17:07:13;;;;;;;;;;;25.70;36.20;;;23.98;39.15;101334.47;12248735;19;19919;-85
2022/09/03 17:11:38;;;;;;;;;;;25.60;36.20;;;23.94;38.65;101341.97;12250576;19;19914;-86
2022/09/03 17:15:39;;;;;;;;;;;25.60;36.40;;;23.89;38.97;101338.09;12247119;19;19930;-85
2022/09/03 17:20:02;;;;;;;;;;;25.50;36.40;;;23.78;38.90;101339.19;12245117;19;19918;-86
2022/09/03 17:24:20;;;;;;;;;;;25.40;36.30;;;23.68;39.20;101344.56;12252815;19;19911;-86
2022/09/03 17:28:40;;;;;;;;;;;25.30;36.30;;;23.52;38.91;101333.78;12259505;19;19978;-86
2022/09/03 17:33:18;;;;;;;;;;;25.20;36.30;;;23.37;39.20;101330.84;12258743;19;19925;-86
2022/09/03 17:37:31;;;;;;;;;;;25.20;36.50;;;23.36;39.18;101346.00;12259119;19;19914;-85
2022/09/03 17:41:36;;;;;;;;;;;25.10;36.50;;;23.29;39.04;101344.94;12255928;19;19910;-86
2022/09/03 17:45:55;;;;;;;;;;;25.00;36.60;;;23.19;39.13;101345.00;12256741;19;19923;-85
2022/09/03 17:50:19;;;;;;;;;;;24.80;36.60;;;23.10;39.11;101356.56;12255398;19;19923;-85
2022/09/03 17:54:46;;;;;;;;;;;24.80;36.70;;;22.97;39.37;101361.41;12258832;19;19929;-86
2022/09/03 17:58:52;;;;;;;;;;;24.70;36.70;;;22.85;39.21;101358.09;12256397;19;19919;-86
2022/09/03 18:03:10;;;;;;;;;;;24.50;36.50;;;22.70;39.10;101354.25;12257380;19;19943;-86
2022/09/03 18:07:28;;;;;;;;;;;24.50;36.60;;;22.76;39.39;101377.63;12257037;19;19934;-86
2022/09/03 18:11:36;;;;;;;;;;;24.40;36.60;;;22.69;39.15;101376.56;12255900;19;19910;-86
2022/09/03 18:15:51;;;;;;;;;;;24.40;36.70;;;22.59;39.16;101375.75;12253427;19;20331;-85
2022/09/03 20:13:19;;;;;;;;;;;23.10;37.00;;;21.27;39.98;101402.06;12258432;19;19930;-87
2022/09/03 20:17:50;;;;;;;;;;;23.10;37.00;;;21.37;39.59;101431.31;12257291;19;19930;-86
2022/09/03 20:22:19;;;;;;;;;;;23.00;36.90;;;21.35;39.74;101430.63;12252445;19;19918;-86
2022/09/03 20:26:39;;;;;;;;;;;23.00;37.00;;;21.31;39.48;101439.84;12258279;19;19918;-86
2022/09/03 20:31:00;;;;;;;;;;;23.00;37.00;;;21.24;39.71;101433.41;12252993;19;19911;-86
2022/09/03 20:35:19;;;;;;;;;;;22.90;37.00;;;21.23;39.67;101447.66;12254701;19;19918;-87
2022/09/03 20:39:37;;;;;;;;;;;22.90;36.90;;;21.13;39.81;101437.00;12255948;19;19917;-86
2022/09/03 20:44:16;;;;;;;;;;;22.90;37.00;;;21.14;39.93;101436.88;12254139;19;19930;-86
2022/09/03 20:48:22;;;;;;;;;;;22.80;36.90;;;21.13;40.03;101443.16;12254479;19;20008;-85